Terminal Aerodrome Forecast
Issued by NWS Albany, NY

Home | Current Version | Previous Version | Text Only | Print | Product List | Glossary On
Versions: 1 2 3 4 5 6 7 8 9 10 11 12
885
FTUS41 KALY 241724
TAFGFL
TAF
KGFL 241724Z 2418/2518 20010G16KT P6SM BKN250
     FM250200 18009KT P6SM OVC100
     FM250600 VRB05KT P6SM VCSH SCT025 OVC080
     FM250900 06004KT 3SM -RA BR OVC020=

USA.gov is the U.S. government's official web portal to all federal, state and local government web resources and services.